Estación Meteorológica Peña el Pijo (Robertgarden) [ 11/16/19 02:03:00 CET ]

Fecha Hora Presion(HPa) Temp (°C) Humedad % Rocio (°C) Viento ( m/s) Direccion Lluvia 1Hora(mm) Lluvia 24H(mm) LLuvia Total(mm)
2019-Mar-07 01:01:38 1004.500 5.2 73 0.7       1.03 184.40
2019-Mar-07 02:01:41 494.900 6.1 73 1.6       1.03 184.40
2019-Mar-07 03:01:42 1004.900 6.3 72 1.6       1.03 184.40
2019-Mar-07 04:01:44 1004.800 5.8 71 1.0       1.03 184.40
2019-Mar-07 05:01:41 1004.300 5.5 70 0.5       1.03 184.40
2019-Mar-07 06:02:09 1004.400 5.3 71 0.5       1.03 184.40
2019-Mar-07 07:02:00 1004.900 5.3 71 0.5       1.03 184.40
2019-Mar-07 08:01:43 1005.500 4.8 71 -0.0       1.03 184.40
2019-Mar-07 09:01:49 1006.400 6.3 67 0.6       1.03 184.40
2019-Mar-07 10:01:40 1007.000 8.4 57 0.3 1.4 WNW   1.03 184.40
2019-Mar-07 11:01:53 1006.500 9.8 49 -0.4       1.03 184.40
2019-Mar-07 12:01:40 1006.400 12.6 43 0.3 1.6 NW   1.03 184.40
2019-Mar-07 13:01:46 1006.400 11.8 38 -2.1       1.03 184.40
2019-Mar-07 14:01:34 1005.500 13.6 37 -0.9       1.03 184.40
2019-Mar-07 15:01:34 1005.300 14.1 32 -2.4       1.03 184.40
2019-Mar-07 16:01:50 1004.900 13.9 31 -3.0 2.6 WNW   0.51 184.40
2019-Mar-07 17:01:53 1004.800 12.8 28 -5.4       0.51 184.40
2019-Mar-07 18:01:53 1004.900 11.5 32 -4.7       0.51 184.40
2019-Mar-07 19:01:40 1005.600 8.7 41 -3.9       0.51 184.40
2019-Mar-07 20:01:54 1006.300 6.1 49 -3.8         184.40
2019-Mar-07 21:01:46 1006.700 5.1 57 -2.8         184.40
2019-Mar-07 22:01:39 1007.000 4.3 60 -2.8         184.40
2019-Mar-07 23:01:20 1007.800 3.3 61 -3.5         184.40

Temperatura Máxima:14°    Temperatura Mínima:
Presión Máxima:1007.800 Hpa    Presión Mínima:494.900 Hpa


Volver